Crafers weather station

 Latitude S 34° 59' 22"    Longitude E 138° 43' 40"    Elevation 500 m

The forecast and data used is specifically for Crafers only so these values only apply to this specific area and may differ from the rest of the Mt Lofty Ranges region. The summary bar hi-lights today's prediction rather than yesterdays value. This has not been applied to other CumulusUtils FWI sites.
Legend:
Low-Mod (0-210)
Severe (490 - 630)

High (210 - 350)
Extreme (630 - 800)

Very High (350 - 490)
Catastrophic (800+)


 
143.35
Date Temp. (°C) Wind Speed (km/h) Rain (mm) RH Days Since Rain pwsFWI
Prediction is active (including today!), values are above red line.
26/04/24 13.00 10.00 0.00 0.60 15 200.18
25/04/24 14.00 13.00 0.00 0.58 14 211.82
24/04/24 12.00 16.00 0.00 0.55 13 210.22
23/04/24 19.00 26.00 0.00 0.39 12 200.25
22/04/24 20.00 14.00 0.00 0.31 11 143.35
21/04/24 22.10 6.10 0.00 0.35 10 113.23
20/04/24 18.40 11.20 0.00 0.48 9 112.85
19/04/24 16.00 12.20 0.00 0.62 8 105.67
18/04/24 14.50 9.70 0.00 0.65 7 104.90
17/04/24 17.40 8.60 0.00 0.60 6 108.31
16/04/24 20.30 6.10 0.00 0.45 5 104.04
15/04/24 22.60 7.20 0.00 0.45 4 97.09
14/04/24 21.50 6.10 0.00 0.41 3 89.58
13/04/24 19.30 7.20 0.00 0.47 2 70.17
12/04/24 18.50 7.20 0.00 0.49 1 66.82
11/04/24 18.50 6.10 0.30 0.60 0 77.44
10/04/24 15.70 7.20 0.10 0.61 0 94.57
09/04/24 17.20 8.60 0.20 0.55 0 108.58
08/04/24 19.80 12.20 4.50 0.51 0 107.20
07/04/24 20.20 6.10 0.00 0.49 4 97.43
06/04/24 22.70 9.70 0.00 0.49 3 81.73
05/04/24 19.00 11.20 0.00 0.44 2 126.62
04/04/24 17.60 12.20 0.00 0.51 1 146.84
03/04/24 16.80 8.60 1.70 0.62 0 178.72
02/04/24 15.50 6.10 1.30 0.72 0 208.31
01/04/24 21.40 9.70 5.90 0.58 0 241.57
31/03/24 34.70 8.60 0.00 0.23 12 280.14
30/03/24 32.90 6.10 0.00 0.20 11 231.60
29/03/24 29.20 7.20 0.00 0.13 10 210.69
28/03/24 23.10 9.70 0.00 0.40 9 185.54
27/03/24 22.40 9.70 0.00 0.44 8 189.00
26/03/24 24.10 8.60 0.00 0.35 7 197.79
25/03/24 23.90 7.20 0.00 0.40 6 195.96
24/03/24 22.40 8.60 0.00 0.38 5 191.85
23/03/24 19.60 11.20 0.00 0.48 4 212.29
22/03/24 21.70 12.20 0.00 0.41 3 220.95
21/03/24 21.10 11.20 0.00 0.30 2 182.67
20/03/24 17.90 13.30 0.00 0.40 1 179.17
19/03/24 22.50 8.60 0.10 0.52 0 154.37
18/03/24 31.60 8.60 0.00 0.37 1 176.62
17/03/24 29.80 7.20 0.10 0.40 0 197.14
16/03/24 32.30 8.60 3.80 0.32 0 276.35
15/03/24 26.40 9.70 0.00 0.45 1 365.23
14/03/24 15.50 9.70 0.70 0.74 0 460.99
13/03/24 30.00 8.60 0.70 0.40 0 520.08
12/03/24 36.90 7.20 0.00 0.20 47 572.91
11/03/24 37.20 8.60 0.00 0.20 46 570.29
10/03/24 38.30 9.70 0.00 0.11 45 548.54
09/03/24 38.60 12.20 0.00 0.20 44 475.54
08/03/24 35.90 7.20 0.00 0.20 43 377.69
07/03/24 28.70 9.70 0.00 0.35 42 343.45
06/03/24 33.50 8.60 0.00 0.21 41 935.81
05/03/24 32.30 8.60 0.00 0.20 40 896.90
04/03/24 27.50 8.60 0.00 0.30 39 871.08
03/03/24 22.50 11.20 0.00 0.40 38 910.02
02/03/24 24.60 9.70 0.00 0.42 37 920.37
01/03/24 31.30 97.90 0.00 0.28 36 944.60
29/02/24 28.40 7.20 0.00 0.42 35 353.48
28/02/24 27.40 11.20 0.00 0.49 34 342.71
27/02/24 34.60 8.60 0.00 0.11 33 379.80
26/02/24 27.60 9.70 0.00 0.33 32 403.53
25/02/24 30.50 8.60 0.00 0.20 31 429.47
24/02/24 24.90 11.20 0.00 0.25 30 437.60
23/02/24 17.90 12.20 0.00 0.55 29 450.23
22/02/24 33.40 9.70 0.00 0.20 28 485.58
21/02/24 37.10 9.70 0.00 0.11 27 451.74
20/02/24 30.20 11.20 0.00 0.22 26 386.38
19/02/24 33.00 8.60 0.00 0.20 25 343.01
18/02/24 32.30 8.60 0.00 0.20 24 342.94
17/02/24 33.30 7.20 0.00 0.20 23 386.59
16/02/24 29.30 7.20 0.00 0.20 22 385.26
15/02/24 25.10 9.70 0.00 0.28 21 378.60
14/02/24 21.60 9.70 0.00 0.35 20 367.93
13/02/24 30.20 12.20 0.00 0.33 19 374.21
12/02/24 36.80 11.20 0.00 0.20 18 333.59
11/02/24 33.20 7.20 0.00 0.20 17 253.90
10/02/24 27.60 8.60 0.00 0.35 16 219.05
09/02/24 24.90 9.70 0.00 0.43 15 315.92
08/02/24 26.30 9.70 0.00 0.40 14 336.37
07/02/24 24.10 8.60 0.00 0.41 13 336.91
06/02/24 22.60 9.70 0.00 0.39 12 339.99
05/02/24 20.40 11.20 0.00 0.54 11 335.27
04/02/24 37.40 12.20 0.00 0.11 10 339.87
03/02/24 33.40 7.20 0.00 0.24 9 259.66
02/02/24 27.90 8.60 0.00 0.36 8 234.86
01/02/24 26.80 8.60 0.00 0.43 7 213.99
31/01/24 22.60 9.70 0.00 0.46 6 204.38
30/01/24 26.80 8.60 0.00 0.50 5 148.87
29/01/24 30.70 9.70 0.00 0.30 4 165.25
28/01/24 27.90 7.20 0.00 0.40 3 221.12
27/01/24 22.10 7.20 0.00 0.44 2 261.35
26/01/24 22.00 8.60 0.00 0.43 1 301.73
25/01/24 21.00 9.70 22.20 0.71 0 384.78
24/01/24 29.40 9.70 0.30 0.40 0 411.96
23/01/24 38.40 9.70 0.60 0.11 0 390.54
22/01/24 30.60 11.20 0.00 0.25 6 301.18
21/01/24 23.00 12.20 0.00 0.46 5 205.21
20/01/24 33.90 11.20 0.00 0.11 4 222.27
19/01/24 27.80 6.10 0.00 0.30 3 165.15
18/01/24 22.50 8.60 0.00 0.44 2 180.18
17/01/24 20.70 8.60 0.00 0.49 1 312.66
16/01/24 34.60 8.60 10.60 0.23 0 365.22
15/01/24 30.30 11.20 0.00 0.43 8 382.73
14/01/24 25.10 11.20 0.00 0.31 7 364.80
13/01/24 27.60 11.20 0.00 0.42 6 330.05
12/01/24 37.30 12.20 0.00 0.11 5 298.39
11/01/24 31.20 8.60 0.00 0.35 4 141.88
10/01/24 28.60 7.20 0.00 0.40 3 138.37
09/01/24 28.50 8.60 0.00 0.43 2 127.61
08/01/24 19.70 11.20 0.00 0.70 1 91.95
07/01/24 25.90 8.60 0.10 0.70 0 135.86
06/01/24 23.90 7.20 20.40 0.65 0 164.90
05/01/24 30.50 9.70 0.00 0.43 2 195.64
04/01/24 27.30 7.20 0.00 0.54 1 166.45
03/01/24 25.60 0.00 0.30 0.48 0 168.38
02/01/24 31.20 7.20 0.00 0.34 7 202.50
01/01/24 27.90 8.60 0.00 0.36 6 172.29
31/12/23 23.00 9.70 0.00 0.38 5 134.27
30/12/23 19.00 9.70 0.00 0.53 4 99.56
29/12/23 22.20 11.20 0.00 0.55 3 101.24
28/12/23 24.60 9.70 0.00 0.49 2 141.22
27/12/23 21.80 7.20 0.00 0.63 1 145.16
26/12/23 16.10 9.70 0.20 0.88 0 163.21
25/12/23 15.40 13.30 4.80 0.71 0 199.60
24/12/23 18.40 12.20 0.00 0.56 6 245.07
23/12/23 29.90 11.20 0.00 0.28 5 314.54
22/12/23 26.70 8.60 0.00 0.41 4 298.40
21/12/23 21.30 13.30 0.00 0.51 3 284.29
20/12/23 18.50 13.30 0.00 0.40 2 276.18
19/12/23 18.80 19.40 0.00 0.45 1 255.91
18/12/23 30.80 13.30 0.30 0.21 0 208.71
17/12/23 28.50 8.60 0.00 0.21 3 148.63
16/12/23 19.80 9.70 0.00 0.50 2 64.82
15/12/23 21.70 8.60 0.00 0.42 1 71.53
14/12/23 19.20 9.70 0.20 0.66 0 14.64
13/12/23 24.20 15.80 2.50 0.47 0 55.29
12/12/23 23.70 9.70 0.10 0.47 0 64.19
11/12/23 23.20 12.20 13.40 0.76 0 98.44
10/12/23 15.00 13.30 12.40 0.99 0 134.73
09/12/23 12.80 17.30 25.20 0.99 0 250.05
08/12/23 33.20 19.40 9.60 0.31 0 353.44
07/12/23 28.80 7.20 0.00 0.40 5 332.87
06/12/23 32.50 8.60 0.00 0.30 4 325.22
05/12/23 29.10 7.20 0.00 0.28 3 303.69
04/12/23 34.00 12.20 0.00 0.11 2 287.03
03/12/23 30.00 8.60 0.00 0.20 1 181.03
02/12/23 18.80 9.70 0.40 0.53 0 111.47
01/12/23 23.90 8.60 0.00 0.46 2 113.55
30/11/23 24.10 11.20 0.00 0.43 1 99.49
29/11/23 21.60 13.30 0.10 0.62 0 74.00
28/11/23 16.70 9.70 0.00 0.72 1 45.54
27/11/23 21.30 12.20 9.50 0.52 0 75.45
26/11/23 18.60 12.20 0.10 0.62 0 110.86
25/11/23 19.10 8.60 0.40 0.62 0 126.60
24/11/23 21.10 8.60 0.00 0.68 1 182.11
23/11/23 18.40 7.20 11.10 0.90 0 201.22
22/11/23 21.90 12.20 0.00 0.51 8 242.58
21/11/23 22.10 15.80 0.00 0.46 7 246.95
20/11/23 25.00 9.70 0.00 0.42 6 249.33
19/11/23 28.10 9.70 0.00 0.25 5 219.40
18/11/23 26.00 7.20 0.00 0.32 4 180.25
17/11/23 21.80 9.70 0.00 0.32 3 165.03
16/11/23 18.70 15.80 0.00 0.46 2 156.81
15/11/23 24.40 13.30 0.00 0.40 1 266.70
14/11/23 16.50 6.10 0.10 0.71 0 310.81
13/11/23 20.80 6.10 1.00 0.43 0 343.37
12/11/23 17.00 11.20 0.00 0.57 18 375.94
11/11/23 20.30 11.20 0.00 0.49 17 416.47
10/11/23 38.50 12.20 0.00 0.11 16 414.86
09/11/23 31.60 13.30 0.00 0.24 15 302.19
08/11/23 27.80 7.20 0.00 0.27 14 241.54
07/11/23 27.20 7.20 0.00 0.39 13 239.03
06/11/23 29.10 8.60 0.00 0.13 12 239.14
05/11/23 25.20 6.10 0.00 0.32 11 205.14
04/11/23 19.70 13.30 0.00 0.41 10 204.53
03/11/23 20.00 13.30 0.00 0.45 9 206.11
02/11/23 22.20 11.20 0.00 0.37 8 279.02
01/11/23 19.40 11.20 0.00 0.35 7 272.71
31/10/23 17.70 11.20 0.00 0.40 6 262.15
30/10/23 18.80 14.80 0.00 0.58 5 258.55
29/10/23 21.80 11.20 0.00 0.34 4 261.03
28/10/23 26.50 18.40 0.00 0.15 3 293.75
27/10/23 21.40 8.60 0.00 0.26 2 207.81
26/10/23 15.80 12.20 0.00 0.47 1 199.40
25/10/23 13.70 13.30 0.80 0.41 0 234.17
24/10/23 17.30 13.30 0.00 0.42 9 283.81
23/10/23 23.40 14.80 0.00 0.15 8 291.39
22/10/23 17.10 11.20 0.00 0.47 7 250.48
21/10/23 16.10 12.20 0.00 0.44 6 243.85
20/10/23 26.10 11.20 0.00 0.22 5 200.44
19/10/23 30.50 8.60 0.00 0.13 4 140.50
18/10/23 26.80 7.20 0.00 0.23 3 87.68
17/10/23 20.80 9.70 0.00 0.32 2 67.97
16/10/23 14.60 11.20 0.00 0.53 1 31.83
15/10/23 15.20 14.80 11.20 0.74 0 70.92
14/10/23 15.00 11.20 2.60 0.70 0 98.05
13/10/23 15.10 12.20 0.20 0.68 0 116.87
12/10/23 16.60 11.20 0.90 0.52 0 144.21
11/10/23 30.10 12.20 7.60 0.20 0 171.61
10/10/23 25.70 11.20 0.00 0.28 5 128.94
09/10/23 21.70 8.60 0.00 0.42 4 93.63
08/10/23 21.40 7.20 0.00 0.33 3 89.86
07/10/23 16.30 9.70 0.00 0.43 2 136.60
06/10/23 14.70 12.20 0.00 0.51 1 162.95
05/10/23 13.70 8.60 11.80 0.74 0 214.56
04/10/23 13.90 11.20 0.30 0.47 0 261.41
03/10/23 18.00 11.20 0.40 0.50 0 282.29
02/10/23 27.90 12.20 1.00 0.21 0 290.36
01/10/23 22.10 8.60 0.00 0.39 10 258.91
30/09/23 29.70 9.70 0.00 0.13 9 252.38
29/09/23 27.30 8.60 0.00 0.21 8 228.08
28/09/23 23.90 8.60 0.00 0.22 7 217.83
27/09/23 18.60 11.20 0.00 0.35 6 593.96
26/09/23 23.30 7.20 0.00 0.25 5 576.00
25/09/23 20.10 9.70 0.00 0.51 4 544.18
24/09/23 26.50 8.60 0.00 0.21 3 561.86
23/09/23 23.80 9.70 0.00 0.30 2 545.84
22/09/23 18.60 103.70 0.00 0.06 1 549.02
21/09/23 15.80 8.60 0.20 0.54 0 177.20
20/09/23 15.10 12.20 3.60 0.66 0 195.26
19/09/23 20.10 14.80 0.60 0.41 0 266.63
18/09/23 23.20 9.70 0.00 0.42 10 279.27
17/09/23 28.70 7.20 0.00 0.22 9 282.07
16/09/23 24.00 11.20 0.00 0.31 8 259.40
15/09/23 19.30 9.70 0.00 0.42 7 228.21
14/09/23 25.80 14.80 0.00 0.20 6 210.86
13/09/23 25.70 8.60 0.00 0.23 5 143.80
12/09/23 22.80 8.60 0.00 0.25 4 86.75
11/09/23 20.70 7.20 0.00 0.36 3 62.45
10/09/23 18.40 7.20 0.00 0.48 2 56.81
09/09/23 13.30 7.20 0.00 0.60 1 22.19
08/09/23 11.10 11.20 0.50 0.58 0 12.41
07/09/23 9.40 15.80 12.70 0.62 0 22.95
06/09/23 20.40 11.20 12.00 0.28 0 37.46
05/09/23 16.30 8.60 0.00 0.44 1 46.25
04/09/23 14.80 12.20 5.60 0.55 0 47.12
03/09/23 21.50 12.20 1.40 0.27 0 105.91
02/09/23 19.50 7.20 0.10 0.44 0 111.67
01/09/23 15.60 5.00 0.00 0.64 1 114.17
31/08/23 12.20 5.00 0.70 0.80 0 117.32
30/08/23 15.00 9.70 0.20 0.59 0 143.32
29/08/23 24.70 9.70 0.60 0.30 0 159.18
28/08/23 22.70 6.10 0.00 0.15 3 131.37
27/08/23 17.10 8.60 0.00 0.41 2 115.46
26/08/23 15.40 8.60 0.00 0.65 1 81.08
25/08/23 20.90 8.60 0.10 0.32 0 81.38
24/08/23 17.60 12.20 0.00 0.40 3 55.54
23/08/23 13.80 7.20 0.00 0.50 2 25.14
22/08/23 13.00 9.70 0.00 0.53 1 26.43
21/08/23 15.40 12.20 9.10 0.66 0 16.63
20/08/23 13.90 13.30 0.10 0.72 0 25.09
19/08/23 12.40 9.70 1.10 0.85 0 26.70
18/08/23 12.20 12.20 7.30 0.57 0 29.57
17/08/23 11.80 13.30 10.50 0.75 0 27.67
16/08/23 16.80 8.60 8.60 0.45 0 30.63
15/08/23 16.00 6.10 0.00 0.40 2 34.15
14/08/23 14.10 7.20 0.00 0.51 1 19.87
13/08/23 9.80 11.20 1.20 0.86 0 33.52
12/08/23 9.90 7.20 2.20 0.87 0 47.40
11/08/23 13.20 6.10 3.50 0.53 0 60.01
10/08/23 13.50 6.10 0.00 0.60 1 66.79
09/08/23 18.50 12.20 4.20 0.37 0 84.35
08/08/23 16.10 9.70 0.00 0.32 4 62.25
07/08/23 14.10 9.70 0.00 0.53 3 63.09
06/08/23 10.60 9.70 0.00 0.62 2 54.79
05/08/23 11.70 9.70 0.00 0.62 1 44.38
04/08/23 11.10 14.80 0.30 0.75 0 43.02
03/08/23 21.10 14.80 9.40 0.36 0 57.55
02/08/23 16.70 12.20 0.00 0.44 1 42.79
01/08/23 13.10 6.10 0.10 0.60 0 15.87
31/07/23 12.90 11.20 3.20 0.70 0 29.53
30/07/23 11.30 12.20 8.60 0.79 0 37.60
29/07/23 12.70 9.70 0.60 0.70 0 40.32
28/07/23 11.80 9.70 4.40 0.80 0 43.15
27/07/23 15.30 11.20 6.00 0.44 0 47.72
26/07/23 15.20 8.60 0.00 0.46 2 51.19
25/07/23 14.30 7.20 0.00 0.54 1 34.18
24/07/23 11.90 7.20 0.50 0.75 0 22.41
23/07/23 11.60 8.60 0.20 0.63 0 27.74
22/07/23 9.30 9.70 4.90 0.76 0 36.78
21/07/23 12.10 8.60 1.00 0.64 0 41.28
20/07/23 9.90 13.30 3.60 0.72 0 44.51
19/07/23 14.70 13.30 1.40 0.48 0 70.09
18/07/23 12.70 8.60 0.70 0.59 0 79.44
17/07/23 13.90 8.60 0.10 0.45 0 83.12
16/07/23 13.10 5.00 0.00 0.52 1 81.24
15/07/23 10.10 9.70 0.50 0.69 0 80.67
14/07/23 14.60 11.20 0.00 0.50 4 80.12
13/07/23 13.40 14.80 0.00 0.54 3 57.67
12/07/23 14.10 9.70 0.00 0.55 2 38.66
11/07/23 14.40 8.60 0.00 0.57 1 20.76
10/07/23 12.10 9.70 0.10 0.72 0 10.53
09/07/23 10.70 11.20 5.00 0.90 0 11.87
08/07/23 9.80 13.30 5.60 0.73 0 15.23
07/07/23 10.40 15.80 12.70 0.66 0 20.48
06/07/23 8.60 14.80 6.50 0.85 0 22.67
05/07/23 13.90 13.30 9.80 0.56 0 27.20
04/07/23 11.60 9.70 0.10 0.66 0 21.02
03/07/23 9.60 5.00 1.00 0.72 0 12.03
02/07/23 9.00 7.20 0.10 0.78 0 12.44
01/07/23 12.30 6.10 0.50 0.71 0 8.81
30/06/23 10.00 8.60 3.20 0.81 0 5.76
29/06/23 11.60 8.60 4.40 0.70 0 7.28
28/06/23 12.30 8.60 1.20 0.65 0 17.91
27/06/23 9.50 6.10 0.10 0.74 0 3.76
26/06/23 11.30 7.20 3.80 0.83 0 11.49
25/06/23 9.70 14.80 13.30 0.82 0 18.13
24/06/23 10.70 14.80 3.70 0.66 0 34.53
23/06/23 10.10 13.30 0.20 0.70 0 15.99
22/06/23 8.80 17.30 50.00 0.90 0 19.52
21/06/23 11.40 9.70 9.40 0.65 0 55.04
20/06/23 10.40 6.10 0.00 0.60 2 67.92
19/06/23 11.80 11.20 0.00 0.61 1 60.77
18/06/23 10.20 18.40 7.50 0.70 0 52.28
17/06/23 10.80 13.30 8.60 0.54 0 52.98
16/06/23 15.10 17.30 0.00 0.43 1 60.49
15/06/23 11.80 11.20 0.50 0.55 0 29.06
14/06/23 11.00 11.20 4.50 0.83 0 17.63
13/06/23 10.90 12.20 9.20 0.76 0 17.67
12/06/23 15.40 13.30 6.30 0.59 0 34.95
11/06/23 15.10 8.60 0.00 0.60 1 29.61
10/06/23 11.70 6.10 0.60 0.80 0 16.82
09/06/23 10.70 9.70 2.30 0.74 0 45.00
08/06/23 11.60 13.30 18.90 0.77 0 70.66
07/06/23 16.70 14.80 0.50 0.76 0 73.10
06/06/23 19.40 8.60 4.40 0.52 0 72.18
05/06/23 14.60 11.20 1.80 0.73 0 85.66
04/06/23 17.80 14.80 0.70 0.53 0 80.65
03/06/23 21.60 8.60 0.00 0.41 1 53.36
02/06/23 15.60 3.60 0.50 0.59 0 26.24
01/06/23 13.20 7.20 0.00 0.85 1 22.02
31/05/23 18.20 11.20 0.20 0.62 0 17.75
30/05/23 13.40 13.30 2.40 0.84 0 3.27
29/05/23 13.90 7.20 8.00 0.91 0 0.68
28/05/23 12.60 12.20 8.80 0.92 0 7.32
27/05/23 12.00 12.20 8.50 0.78 0 15.18
26/05/23 11.10 12.20 6.70 0.73 0 20.88
25/05/23 10.90 13.30 10.00 0.74 0 20.99
24/05/23 16.90 18.40 1.80 0.52 0 34.95
23/05/23 12.80 7.20 0.00 0.70 2 19.99
22/05/23 12.80 6.10 0.00 0.65 1 18.06
21/05/23 13.50 8.60 0.20 0.80 0 10.76
20/05/23 13.80 11.20 2.30 0.81 0 40.94
19/05/23 11.80 8.60 8.40 0.91 0 59.15
18/05/23 11.80 5.00 2.20 0.71 0 73.59
17/05/23 11.20 5.00 0.00 0.59 1 82.73
16/05/23 14.50 8.60 3.20 0.80 0 96.43
15/05/23 22.20 8.60 0.10 0.30 0 108.13
14/05/23 21.70 6.10 0.00 0.34 3 84.55
13/05/23 20.10 5.00 0.00 0.44 2 71.31
12/05/23 17.20 7.20 0.00 0.64 1 67.63
11/05/23 17.40 9.70 0.10 0.55 0 67.24
10/05/23 16.90 9.70 0.00 0.61 1 40.17
09/05/23 13.50 7.20 0.40 0.75 0 32.27
08/05/23 13.40 7.20 1.00 0.61 0 42.45
07/05/23 12.20 9.70 0.10 0.62 0 33.83
06/05/23 11.70 11.20 0.60 0.65 0 34.14
05/05/23 16.10 8.60 11.90 0.71 0 26.41
04/05/23 13.20 7.20 0.00 0.65 2 34.81
03/05/23 15.50 11.20 0.00 0.60 1 26.18
02/05/23 14.60 13.30 3.00 0.76 0 14.73
01/05/23 14.70 11.20 5.40 0.81 0 11.80
30/04/23 15.00 7.20 7.30 0.80 0 45.27
29/04/23 14.80 7.20 0.60 0.61 0 70.38
28/04/23 15.80 7.20 2.10 0.55 0 88.95

 

CumulusUtils Version 3.0.1 - generated at 22/04/2024 18:01 - © Hans Rottier
Science background here. - NOTE: Behavioural testing still under way!
Prediction courtesy of https://www.yourweather.co.uk/